createdAt,value
2019-03-24T00:01:41.974Z,24.33
2019-03-24T00:04:13.397Z,22.13
2019-03-24T00:06:44.688Z,27.20
2019-03-24T00:09:16.176Z,29.47
2019-03-24T00:11:47.447Z,27.40
2019-03-24T00:14:18.823Z,28.73
2019-03-24T00:16:50.354Z,27.40
2019-03-24T00:19:21.633Z,34.50
2019-03-24T00:21:53.112Z,34.37
2019-03-24T00:24:24.444Z,47.13
2019-03-24T00:26:56.115Z,39.00
2019-03-24T00:29:27.536Z,49.07
2019-03-24T00:31:59.038Z,38.00
2019-03-24T00:34:31.410Z,44.53
2019-03-24T00:37:02.843Z,39.43
2019-03-24T00:39:34.158Z,48.77
2019-03-24T00:42:05.916Z,64.47
2019-03-24T00:44:37.257Z,46.27
2019-03-24T00:47:08.769Z,43.83
2019-03-24T00:49:40.166Z,41.83
2019-03-24T00:52:11.557Z,50.27
2019-03-24T00:54:42.932Z,42.23
2019-03-24T00:57:14.266Z,47.37
2019-03-24T00:59:45.575Z,49.77
2019-03-24T01:02:17.048Z,48.47
2019-03-24T01:04:48.459Z,46.37
2019-03-24T01:07:19.951Z,44.57
2019-03-24T01:09:51.224Z,45.00
2019-03-24T01:12:22.659Z,49.07
2019-03-24T01:14:54.994Z,44.70
2019-03-24T01:17:26.564Z,50.60
2019-03-24T01:19:57.894Z,56.67
2019-03-24T01:22:29.549Z,54.93
2019-03-24T01:25:01.002Z,43.13
2019-03-24T01:27:32.435Z,60.20
2019-03-24T01:30:04.583Z,49.87
2019-03-24T01:32:35.948Z,54.60
2019-03-24T01:35:07.941Z,55.40
2019-03-24T01:37:39.367Z,63.77
2019-03-24T01:40:11.692Z,60.60
2019-03-24T01:42:43.420Z,53.60
2019-03-24T01:45:15.194Z,58.27
2019-03-24T01:47:46.625Z,57.90
2019-03-24T01:50:19.003Z,57.77
2019-03-24T01:52:50.327Z,64.77
2019-03-24T01:55:21.676Z,55.97
2019-03-24T01:57:53.040Z,66.43
2019-03-24T02:00:24.786Z,60.57
2019-03-24T02:02:55.924Z,58.93
2019-03-24T02:05:27.597Z,62.00
2019-03-24T02:07:59.151Z,67.27
2019-03-24T02:10:30.657Z,71.03
2019-03-24T02:13:01.932Z,47.50
2019-03-24T02:15:33.512Z,45.90
2019-03-24T02:18:04.938Z,38.83
2019-03-24T02:20:36.131Z,45.80
2019-03-24T02:23:07.477Z,43.93
2019-03-24T02:25:38.869Z,48.87
2019-03-24T02:28:10.281Z,46.10
2019-03-24T02:30:41.577Z,46.80
2019-03-24T02:33:13.171Z,50.30
2019-03-24T02:35:45.617Z,42.80
2019-03-24T02:38:17.478Z,42.50
2019-03-24T02:40:48.820Z,43.17
2019-03-24T02:43:20.497Z,34.97
2019-03-24T02:45:51.829Z,42.20
2019-03-24T02:48:23.404Z,44.60
2019-03-24T02:50:54.743Z,47.90
2019-03-24T02:53:26.117Z,50.80
2019-03-24T02:55:58.600Z,53.83
2019-03-24T02:58:29.942Z,51.47
2019-03-24T03:01:01.231Z,52.90
2019-03-24T03:03:32.536Z,48.37
2019-03-24T03:06:03.925Z,47.73
2019-03-24T03:08:35.234Z,51.10
2019-03-24T03:11:06.727Z,50.17
2019-03-24T03:13:38.039Z,39.20
2019-03-24T03:16:09.428Z,44.70
2019-03-24T03:18:40.813Z,41.10
2019-03-24T03:21:12.057Z,45.07
2019-03-24T03:23:43.471Z,57.07
2019-03-24T03:26:14.877Z,51.50
2019-03-24T03:28:46.897Z,57.23
2019-03-24T03:31:18.463Z,45.80
2019-03-24T03:33:49.808Z,52.17
2019-03-24T03:36:21.179Z,50.40
2019-03-24T03:38:52.698Z,47.10
2019-03-24T03:41:24.155Z,55.33
2019-03-24T03:43:55.530Z,52.60
2019-03-24T03:46:26.858Z,55.97
2019-03-24T03:48:59.717Z,49.63
2019-03-24T03:51:31.079Z,58.17
2019-03-24T03:54:02.668Z,51.90
2019-03-24T03:56:34.076Z,41.53
2019-03-24T03:59:05.576Z,42.33
2019-03-24T04:01:36.988Z,59.30
2019-03-24T04:04:08.269Z,52.17
2019-03-24T04:06:39.775Z,47.37
2019-03-24T04:09:11.183Z,54.20
2019-03-24T04:11:42.472Z,62.73
2019-03-24T04:14:13.651Z,64.60
2019-03-24T04:16:44.970Z,56.97
2019-03-24T04:19:16.260Z,56.83
2019-03-24T04:21:47.569Z,55.93
2019-03-24T04:24:19.035Z,58.87
2019-03-24T04:26:50.372Z,55.13
2019-03-24T04:29:21.790Z,53.50
2019-03-24T04:31:53.162Z,51.80
2019-03-24T04:34:24.556Z,60.30
2019-03-24T04:36:55.961Z,68.70
2019-03-24T04:39:27.502Z,58.83
2019-03-24T04:41:58.974Z,53.37
2019-03-24T04:44:30.465Z,63.80
2019-03-24T04:47:01.865Z,50.00
2019-03-24T04:49:33.341Z,66.30
2019-03-24T04:52:04.858Z,66.23
2019-03-24T04:54:36.175Z,51.47
2019-03-24T04:57:07.654Z,45.90
2019-03-24T04:59:39.082Z,46.30
2019-03-24T05:02:10.558Z,53.73
2019-03-24T05:04:41.866Z,64.73
2019-03-24T05:07:13.150Z,47.57
2019-03-24T05:09:45.016Z,61.40
2019-03-24T05:12:16.314Z,58.67
2019-03-24T05:14:47.516Z,73.63
2019-03-24T05:17:26.765Z,68.90
2019-03-24T05:19:51.959Z,54.30
2019-03-24T05:22:23.342Z,45.40
2019-03-24T05:24:54.650Z,42.33
2019-03-24T05:27:26.081Z,44.50
2019-03-24T05:29:58.312Z,51.93
2019-03-24T05:32:29.625Z,62.13
2019-03-24T05:35:01.024Z,48.23
2019-03-24T05:37:32.401Z,46.20
2019-03-24T05:40:04.308Z,44.80
2019-03-24T05:42:35.716Z,41.67
2019-03-24T05:45:07.683Z,44.40
2019-03-24T05:47:38.937Z,49.20
2019-03-24T05:50:11.637Z,59.10
2019-03-24T05:52:42.952Z,53.33
2019-03-24T05:55:14.649Z,42.93
2019-03-24T05:57:45.972Z,54.93
2019-03-24T06:00:17.628Z,55.33
2019-03-24T06:02:48.972Z,49.33
2019-03-24T06:05:20.317Z,54.30
2019-03-24T06:07:51.695Z,50.53
2019-03-24T06:10:23.007Z,48.07
2019-03-24T06:12:54.388Z,44.37
2019-03-24T06:15:25.712Z,50.00
2019-03-24T06:17:56.985Z,47.40
2019-03-24T06:20:28.307Z,48.47
2019-03-24T06:22:59.696Z,53.03
2019-03-24T06:25:30.990Z,53.20
2019-03-24T06:28:02.304Z,52.60
2019-03-24T06:30:33.793Z,40.40
2019-03-24T06:33:05.203Z,71.47
2019-03-24T06:35:36.480Z,53.37
2019-03-24T06:38:08.073Z,54.17
2019-03-24T06:40:39.406Z,48.23
2019-03-24T06:43:10.792Z,49.73
2019-03-24T06:45:42.190Z,51.47
2019-03-24T06:48:13.589Z,52.93
2019-03-24T06:50:44.886Z,54.07
2019-03-24T06:53:16.200Z,52.73
2019-03-24T06:55:47.577Z,51.40
2019-03-24T06:58:18.867Z,62.57
2019-03-24T07:00:50.277Z,56.83
2019-03-24T07:03:21.575Z,50.93
2019-03-24T07:05:53.587Z,51.10
2019-03-24T07:08:24.935Z,56.37
2019-03-24T07:10:56.238Z,50.97
2019-03-24T07:13:27.499Z,48.73
2019-03-24T07:15:58.892Z,56.17
2019-03-24T07:18:30.796Z,51.53
2019-03-24T07:21:02.187Z,53.70
2019-03-24T07:23:33.743Z,69.40
2019-03-24T07:26:05.101Z,54.83
2019-03-24T07:28:36.542Z,49.23
2019-03-24T07:31:07.903Z,52.47
2019-03-24T07:33:39.235Z,61.33
2019-03-24T07:36:10.633Z,56.23
2019-03-24T07:38:41.948Z,55.50
2019-03-24T07:41:13.293Z,57.27
2019-03-24T07:43:45.713Z,58.60
2019-03-24T07:46:17.208Z,68.37
2019-03-24T07:48:48.469Z,68.97
2019-03-24T07:51:19.841Z,65.57
2019-03-24T07:53:51.205Z,56.20
2019-03-24T07:56:22.648Z,58.57
2019-03-24T07:58:54.109Z,61.47
2019-03-24T08:01:25.400Z,67.40
2019-03-24T08:03:56.805Z,67.60
2019-03-24T08:06:28.199Z,71.80
2019-03-24T08:08:59.441Z,72.00
2019-03-24T08:11:30.847Z,66.23
2019-03-24T08:14:02.139Z,68.03
2019-03-24T08:16:33.444Z,66.67
2019-03-24T08:19:04.839Z,65.57
2019-03-24T08:21:36.240Z,66.90
2019-03-24T08:24:07.630Z,72.57
2019-03-24T08:26:39.020Z,71.77
2019-03-24T08:29:10.496Z,68.30
2019-03-24T08:31:41.837Z,62.83
2019-03-24T08:34:13.131Z,68.17
2019-03-24T08:36:45.637Z,73.00
2019-03-24T08:39:16.967Z,57.47
2019-03-24T08:41:48.484Z,69.43
2019-03-24T08:44:19.978Z,66.80
2019-03-24T08:46:51.448Z,69.53
2019-03-24T08:49:22.799Z,72.27
2019-03-24T08:51:54.117Z,57.43
2019-03-24T08:54:25.502Z,73.37
2019-03-24T08:56:56.895Z,57.50
2019-03-24T08:59:28.203Z,68.30
2019-03-24T09:01:59.495Z,61.87
2019-03-24T09:04:30.799Z,71.53
2019-03-24T09:07:02.405Z,66.87
2019-03-24T09:09:33.739Z,63.07
2019-03-24T09:12:05.236Z,62.87
2019-03-24T09:14:36.702Z,60.20
2019-03-24T09:17:08.013Z,70.73
2019-03-24T09:19:39.652Z,63.77
2019-03-24T09:22:11.001Z,51.97
2019-03-24T09:24:43.328Z,52.53
2019-03-24T09:27:15.697Z,64.87
2019-03-24T09:29:47.086Z,69.70
2019-03-24T09:32:18.494Z,67.57
2019-03-24T09:34:49.787Z,58.27
2019-03-24T09:37:21.369Z,68.33
2019-03-24T09:39:52.794Z,65.53
2019-03-24T09:42:24.490Z,53.53
2019-03-24T09:44:55.792Z,60.50
2019-03-24T09:47:27.295Z,49.93
2019-03-24T09:49:58.598Z,57.03
2019-03-24T09:52:30.004Z,73.30
2019-03-24T09:55:01.402Z,64.33
2019-03-24T09:57:32.765Z,57.37
2019-03-24T10:00:04.464Z,58.27
2019-03-24T10:02:35.956Z,55.23
2019-03-24T10:05:07.626Z,56.87
2019-03-24T10:07:39.061Z,53.67
2019-03-24T10:10:11.264Z,53.03
2019-03-24T10:12:43.601Z,58.63
2019-03-24T10:15:15.344Z,48.93
2019-03-24T10:17:46.704Z,54.57
2019-03-24T10:20:18.216Z,62.30
2019-03-24T10:22:49.966Z,55.27
2019-03-24T10:25:21.473Z,46.73
2019-03-24T10:27:52.769Z,47.80
2019-03-24T10:30:24.117Z,49.97
2019-03-24T10:32:55.491Z,52.73
2019-03-24T10:35:26.775Z,53.83
2019-03-24T10:37:58.265Z,43.43
2019-03-24T10:40:29.569Z,49.43
2019-03-24T10:43:01.111Z,50.80
2019-03-24T10:45:32.581Z,48.43
2019-03-24T10:48:04.052Z,39.77
2019-03-24T10:50:35.362Z,35.57
2019-03-24T10:53:06.767Z,41.80
2019-03-24T10:55:38.178Z,44.77
2019-03-24T10:58:09.646Z,41.93
2019-03-24T11:00:42.655Z,34.50
2019-03-24T11:03:14.210Z,42.53
2019-03-24T11:05:45.850Z,45.17
2019-03-24T11:08:17.273Z,39.00
2019-03-24T11:10:48.772Z,41.17
2019-03-24T11:13:20.156Z,48.20
2019-03-24T11:15:51.644Z,40.10
2019-03-24T11:18:23.027Z,41.70
2019-03-24T11:20:54.349Z,40.63
2019-03-24T11:23:25.660Z,35.93
2019-03-24T11:25:56.975Z,33.57
2019-03-24T11:28:28.239Z,39.50
2019-03-24T11:30:59.549Z,34.47
2019-03-24T11:33:30.845Z,40.07
2019-03-24T11:36:03.278Z,35.33
2019-03-24T11:38:35.276Z,31.10
2019-03-24T11:41:06.689Z,45.37
2019-03-24T11:43:38.296Z,31.77
2019-03-24T11:46:09.694Z,41.93
2019-03-24T11:48:41.117Z,35.57
2019-03-24T11:51:12.429Z,37.13
2019-03-24T11:53:43.732Z,41.07
2019-03-24T11:56:15.037Z,40.30
2019-03-24T11:58:46.503Z,38.63
2019-03-24T12:01:18.037Z,34.60
2019-03-24T12:03:49.435Z,41.87
2019-03-24T12:06:20.722Z,53.30
2019-03-24T12:08:52.012Z,37.07
2019-03-24T12:11:23.418Z,30.37
2019-03-24T12:13:54.721Z,30.10
2019-03-24T12:16:26.014Z,36.13
2019-03-24T12:18:57.298Z,39.13
2019-03-24T12:21:28.676Z,33.50
2019-03-24T12:23:59.860Z,36.00
2019-03-24T12:26:31.163Z,38.93
2019-03-24T12:29:02.446Z,37.90
2019-03-24T12:31:33.769Z,32.43
2019-03-24T12:34:05.152Z,37.60
2019-03-24T12:36:36.639Z,33.63
2019-03-24T12:39:08.673Z,37.73
2019-03-24T12:41:40.051Z,38.77
2019-03-24T12:44:11.523Z,27.57
2019-03-24T12:46:42.811Z,38.10
2019-03-24T12:49:14.407Z,33.90
2019-03-24T12:51:45.811Z,33.77
2019-03-24T12:54:17.106Z,38.10
2019-03-24T12:56:49.448Z,36.97
2019-03-24T12:59:20.756Z,31.20
2019-03-24T13:01:52.931Z,29.40
2019-03-24T13:04:24.499Z,32.27
2019-03-24T13:06:56.771Z,37.77
2019-03-24T13:09:28.996Z,30.43
2019-03-24T13:12:00.388Z,34.10
2019-03-24T13:14:31.586Z,31.97
2019-03-24T13:17:02.995Z,32.70
2019-03-24T13:19:36.151Z,35.07
2019-03-24T13:22:07.727Z,33.73
2019-03-24T13:24:40.302Z,33.70
2019-03-24T13:27:11.646Z,33.03
2019-03-24T13:29:43.124Z,28.20
2019-03-24T13:32:16.565Z,33.10
2019-03-24T13:34:47.905Z,32.25
2019-03-24T13:37:19.298Z,33.30
2019-03-24T13:39:50.598Z,23.63
2019-03-24T13:42:21.935Z,29.60
2019-03-24T13:44:53.352Z,28.47
2019-03-24T13:47:24.804Z,25.63
2019-03-24T13:49:56.055Z,27.37
2019-03-24T13:52:27.712Z,31.67
2019-03-24T13:54:59.039Z,24.27
2019-03-24T13:57:30.941Z,24.10
2019-03-24T14:00:02.350Z,26.53
2019-03-24T14:02:35.288Z,28.50
2019-03-24T14:05:06.788Z,40.63
2019-03-24T14:07:38.310Z,24.20
2019-03-24T14:10:09.966Z,25.67
2019-03-24T14:12:41.446Z,21.30
2019-03-24T14:15:12.787Z,30.53
2019-03-24T14:17:43.992Z,25.57
2019-03-24T14:20:15.490Z,25.07
2019-03-24T14:22:46.928Z,24.13
2019-03-24T14:25:18.335Z,22.03
2019-03-24T14:27:49.639Z,16.33
2019-03-24T14:30:30.480Z,22.23
2019-03-24T14:33:01.812Z,27.10
2019-03-24T14:35:33.104Z,23.73
2019-03-24T14:38:04.626Z,29.77
2019-03-24T14:40:36.020Z,19.23
2019-03-24T14:43:07.526Z,22.30
2019-03-24T14:45:38.920Z,24.63
2019-03-24T14:48:10.208Z,24.37
2019-03-24T14:50:41.597Z,19.93
2019-03-24T14:53:13.007Z,23.17
2019-03-24T14:55:44.408Z,20.30
2019-03-24T14:58:16.830Z,27.73
2019-03-24T15:00:48.270Z,24.75
2019-03-24T15:03:19.690Z,27.33
2019-03-24T15:05:51.070Z,24.47
2019-03-24T15:08:22.487Z,27.87
2019-03-24T15:10:53.823Z,21.73
2019-03-24T15:13:25.187Z,23.63
2019-03-24T15:15:56.650Z,25.23
2019-03-24T15:18:28.085Z,21.30
2019-03-24T15:21:05.483Z,25.03
2019-03-24T15:23:32.766Z,28.40
2019-03-24T15:26:04.165Z,21.60
2019-03-24T15:28:35.560Z,21.30
2019-03-24T15:31:06.979Z,24.60
2019-03-24T15:33:38.357Z,24.83
2019-03-24T15:36:09.836Z,25.17
2019-03-24T15:38:41.318Z,20.07
2019-03-24T15:41:12.741Z,22.90
2019-03-24T15:43:44.118Z,31.80
2019-03-24T15:46:15.528Z,26.40
2019-03-24T15:48:46.836Z,28.47
2019-03-24T15:51:18.120Z,28.50
2019-03-24T15:53:50.443Z,42.13
2019-03-24T15:56:21.923Z,27.47
2019-03-24T15:58:53.252Z,23.57
2019-03-24T16:01:24.719Z,37.83
2019-03-24T16:03:56.380Z,31.50
2019-03-24T16:06:27.889Z,30.33
2019-03-24T16:08:59.492Z,30.30
2019-03-24T16:11:30.895Z,27.27
2019-03-24T16:14:03.366Z,27.97
2019-03-24T16:16:34.740Z,27.33
2019-03-24T16:19:06.037Z,31.33
2019-03-24T16:21:37.315Z,33.33
2019-03-24T16:24:08.570Z,30.60
2019-03-24T16:26:39.872Z,29.33
2019-03-24T16:29:11.180Z,33.63
2019-03-24T16:31:42.498Z,32.57
2019-03-24T16:34:14.914Z,28.30
2019-03-24T16:36:46.320Z,30.13
2019-03-24T16:39:17.608Z,36.30
2019-03-24T16:41:49.028Z,35.57
2019-03-24T16:44:20.300Z,31.23
2019-03-24T16:46:51.624Z,29.07
2019-03-24T16:49:23.088Z,34.97
2019-03-24T16:51:54.434Z,33.60
2019-03-24T16:54:25.768Z,31.90
2019-03-24T16:56:57.360Z,34.33
2019-03-24T16:59:28.666Z,34.20
2019-03-24T17:01:59.960Z,32.63
2019-03-24T17:04:31.254Z,36.13
2019-03-24T17:07:02.659Z,35.23
2019-03-24T17:09:33.955Z,28.20
2019-03-24T17:12:05.332Z,28.40
2019-03-24T17:14:37.468Z,34.53
2019-03-24T17:17:11.362Z,33.93
2019-03-24T17:19:41.700Z,29.53
2019-03-24T17:22:14.220Z,25.27
2019-03-24T17:24:45.520Z,31.27
2019-03-24T17:27:16.768Z,31.63
2019-03-24T17:29:48.160Z,29.30
2019-03-24T17:32:19.462Z,25.90
2019-03-24T17:34:50.881Z,29.40
2019-03-24T17:37:22.263Z,36.13
2019-03-24T17:39:53.658Z,35.60
2019-03-24T17:42:25.004Z,22.70
2019-03-24T17:44:56.436Z,25.90
2019-03-24T17:47:27.897Z,28.80
2019-03-24T17:49:59.326Z,37.43
2019-03-24T17:52:30.714Z,23.90
2019-03-24T17:55:01.921Z,28.50
2019-03-24T17:57:33.387Z,29.30
2019-03-24T18:00:05.672Z,26.97
2019-03-24T18:02:38.170Z,24.63
2019-03-24T18:05:10.064Z,25.27
2019-03-24T18:07:41.719Z,28.60
2019-03-24T18:10:13.479Z,33.00
2019-03-24T18:12:44.772Z,29.17
2019-03-24T18:15:16.185Z,24.63
2019-03-24T18:17:47.948Z,26.10
2019-03-24T18:20:40.391Z,29.63
2019-03-24T18:23:11.876Z,35.40
2019-03-24T18:25:43.216Z,26.70
2019-03-24T18:28:14.637Z,24.80
2019-03-24T18:30:45.933Z,29.10
2019-03-24T18:33:17.227Z,30.30
2019-03-24T18:35:48.732Z,27.20
2019-03-24T18:38:20.034Z,28.40
2019-03-24T18:40:51.524Z,26.57
2019-03-24T18:43:24.768Z,31.07
2019-03-24T18:45:56.148Z,24.73
2019-03-24T18:48:27.979Z,32.00
2019-03-24T18:50:59.319Z,29.10
2019-03-24T18:53:30.625Z,25.50
2019-03-24T18:56:02.094Z,28.67
2019-03-24T18:58:33.514Z,27.80
2019-03-24T19:01:04.920Z,36.03
2019-03-24T19:03:36.217Z,43.70
2019-03-24T19:06:07.623Z,30.10
2019-03-24T19:08:39.231Z,22.30
2019-03-24T19:11:10.887Z,28.20
2019-03-24T19:13:42.387Z,39.73
2019-03-24T19:16:13.823Z,29.33
2019-03-24T19:18:48.400Z,33.27
2019-03-24T19:21:19.695Z,29.47
2019-03-24T19:23:51.101Z,26.20
2019-03-24T19:26:22.402Z,27.43
2019-03-24T19:28:53.753Z,34.13
2019-03-24T19:31:25.231Z,32.13
2019-03-24T19:33:57.040Z,33.53
2019-03-24T19:36:28.643Z,27.30
2019-03-24T19:39:00.466Z,33.73
2019-03-24T19:41:33.396Z,23.10
2019-03-24T19:44:04.799Z,26.43
2019-03-24T19:46:36.209Z,23.57
2019-03-24T19:49:08.516Z,32.00
2019-03-24T19:51:39.828Z,34.10
2019-03-24T19:54:11.017Z,25.77
2019-03-24T19:56:42.417Z,29.17
2019-03-24T19:59:13.878Z,29.93
2019-03-24T20:01:45.261Z,30.53
2019-03-24T20:04:16.548Z,30.23
2019-03-24T20:06:47.871Z,25.87
2019-03-24T20:09:19.242Z,25.13
2019-03-24T20:11:50.714Z,31.40
2019-03-24T20:14:24.045Z,28.60
2019-03-24T20:16:55.232Z,28.53
2019-03-24T20:19:26.540Z,31.33
2019-03-24T20:21:57.932Z,24.47
2019-03-24T20:24:29.240Z,30.37
2019-03-24T20:27:00.540Z,34.70
2019-03-24T20:29:31.832Z,29.80
2019-03-24T20:32:03.140Z,31.80
2019-03-24T20:34:34.528Z,25.70
2019-03-24T20:37:05.992Z,31.37
2019-03-24T20:39:37.489Z,27.93
2019-03-24T20:42:08.794Z,28.70
2019-03-24T20:44:40.169Z,33.70
2019-03-24T20:47:11.482Z,28.93
2019-03-24T20:49:42.784Z,31.60
2019-03-24T20:52:14.078Z,34.00
2019-03-24T20:54:45.862Z,27.47
2019-03-24T20:57:17.203Z,25.90
2019-03-24T20:59:48.668Z,28.60
2019-03-24T21:02:20.089Z,30.33
2019-03-24T21:04:51.680Z,32.40
2019-03-24T21:07:23.092Z,29.13
2019-03-24T21:09:54.468Z,30.70
2019-03-24T21:12:25.849Z,29.43
2019-03-24T21:14:57.225Z,27.93
2019-03-24T21:17:28.825Z,28.77
2019-03-24T21:20:00.129Z,22.30
2019-03-24T21:22:31.542Z,34.03
2019-03-24T21:25:04.181Z,31.57
2019-03-24T21:27:35.506Z,33.13
2019-03-24T21:30:08.395Z,34.20
2019-03-24T21:32:39.683Z,34.30
2019-03-24T21:35:11.188Z,30.80
2019-03-24T21:37:42.582Z,33.13
2019-03-24T21:40:14.253Z,29.33
2019-03-24T21:42:47.676Z,33.47
2019-03-24T21:45:19.071Z,30.00
2019-03-24T21:47:50.859Z,34.07
2019-03-24T21:50:22.246Z,30.87
2019-03-24T21:52:53.736Z,37.13
2019-03-24T21:55:25.049Z,35.20
2019-03-24T21:57:57.693Z,30.00
2019-03-24T22:00:36.232Z,37.80
2019-03-24T22:03:08.357Z,35.17
2019-03-24T22:05:39.780Z,32.37
2019-03-24T22:08:11.160Z,31.57
2019-03-24T22:10:42.687Z,32.00
2019-03-24T22:13:14.113Z,34.10
2019-03-24T22:15:45.448Z,30.07
2019-03-24T22:18:16.806Z,32.40
2019-03-24T22:20:49.296Z,28.20
2019-03-24T22:23:20.864Z,34.10
2019-03-24T22:25:51.954Z,39.13
2019-03-24T22:28:23.260Z,33.07
2019-03-24T22:30:54.570Z,37.47
2019-03-24T22:33:25.975Z,38.20
2019-03-24T22:35:57.471Z,36.80
2019-03-24T22:38:29.083Z,31.37
2019-03-24T22:41:00.476Z,31.67
2019-03-24T22:43:32.161Z,33.53
2019-03-24T22:46:04.606Z,38.27
2019-03-24T22:48:35.915Z,30.67
2019-03-24T22:51:07.302Z,27.77
2019-03-24T22:53:38.707Z,32.10
2019-03-24T22:56:10.094Z,30.93
2019-03-24T22:58:41.509Z,36.37
2019-03-24T23:01:13.447Z,36.53
2019-03-24T23:03:44.860Z,35.87
2019-03-24T23:06:16.151Z,45.30
2019-03-24T23:08:47.557Z,29.60
2019-03-24T23:11:18.856Z,29.33
2019-03-24T23:13:50.166Z,31.80
2019-03-24T23:16:22.669Z,31.33
2019-03-24T23:18:54.011Z,31.33
2019-03-24T23:21:25.331Z,26.17
2019-03-24T23:23:56.731Z,26.33
2019-03-24T23:26:28.031Z,30.33
2019-03-24T23:28:59.528Z,34.43
2019-03-24T23:31:30.939Z,32.03
2019-03-24T23:34:02.311Z,33.13
2019-03-24T23:36:33.631Z,42.37
2019-03-24T23:39:05.663Z,31.00
2019-03-24T23:41:36.995Z,25.50
2019-03-24T23:44:08.276Z,32.13
2019-03-24T23:46:39.707Z,35.20
2019-03-24T23:49:11.098Z,34.30
2019-03-24T23:51:42.559Z,36.50
2019-03-24T23:54:13.877Z,39.13
2019-03-24T23:56:45.348Z,37.60
2019-03-24T23:59:16.715Z,36.30
